Time;durP1;ratioP1;P1;durP2;ratioP2;P2;SDS_P1;SDS_P2;PMS_P1;PMS_P2;Temp;Humidity;BMP_temperature;BMP_pressure;BME280_temperature;BME280_humidity;BME280_pressure;Samples;Min_cycle;Max_cycle;Signal;HPM_P1;HPM_P2
2023/08/16 00:02:17;;;;;;;2.00;1.43;;;20.70;99.90;;;;;;5116681;28;20451;-84
2023/08/16 00:04:44;;;;;;;1.73;1.50;;;20.70;99.90;;;;;;5116926;28;20458;-86
2023/08/16 00:07:13;;;;;;;1.70;1.60;;;20.60;99.90;;;;;;5116932;28;20427;-84
2023/08/16 00:09:39;;;;;;;1.57;1.33;;;20.40;99.90;;;;;;5116798;28;20449;-85
2023/08/16 00:12:07;;;;;;;2.63;1.30;;;20.10;99.90;;;;;;5116382;28;20966;-84
2023/08/16 00:14:34;;;;;;;2.23;1.60;;;19.90;99.90;;;;;;5116282;28;20848;-84
2023/08/16 00:17:01;;;;;;;2.63;2.33;;;19.80;99.90;;;;;;5116609;28;20982;-85
2023/08/16 00:19:27;;;;;;;12.53;1.90;;;19.70;99.90;;;;;;5116632;28;20457;-85
2023/08/16 00:21:54;;;;;;;3.43;2.57;;;19.60;99.90;;;;;;5116260;28;20961;-85
2023/08/16 00:24:22;;;;;;;3.13;2.37;;;19.60;99.90;;;;;;5116414;28;20470;-85
2023/08/16 00:26:49;;;;;;;2.10;2.00;;;19.50;99.90;;;;;;5116487;28;20470;-85
2023/08/16 00:29:16;;;;;;;2.40;1.87;;;19.50;99.90;;;;;;5116121;28;20443;-85
2023/08/16 00:31:42;;;;;;;1.60;1.50;;;19.40;99.90;;;;;;5116065;28;20446;-85
2023/08/16 00:34:09;;;;;;;2.13;1.70;;;19.40;99.90;;;;;;5116225;28;20498;-85
2023/08/16 00:36:36;;;;;;;2.97;1.73;;;19.50;99.90;;;;;;5115975;28;20439;-85
2023/08/16 00:39:03;;;;;;;3.40;2.13;;;19.40;99.90;;;;;;5115929;28;20447;-85
2023/08/16 00:41:31;;;;;;;1.60;1.50;;;19.50;99.90;;;;;;5116231;28;20574;-85
2023/08/16 00:43:58;;;;;;;1.63;1.47;;;19.50;99.90;;;;;;5116139;28;20431;-85
2023/08/16 00:46:27;;;;;;;2.90;1.90;;;19.50;99.90;;;;;;5115966;28;20439;-85
2023/08/16 00:48:54;;;;;;;1.67;1.43;;;19.50;99.90;;;;;;5115732;28;20940;-85
2023/08/16 00:51:22;;;;;;;1.80;1.60;;;19.50;99.90;;;;;;5115991;28;20443;-85
2023/08/16 00:53:50;;;;;;;8.20;2.37;;;19.50;99.90;;;;;;5115716;27;20485;-85
2023/08/16 00:56:17;;;;;;;3.57;2.10;;;19.40;99.90;;;;;;5116218;28;20434;-85
2023/08/16 00:58:46;;;;;;;3.53;1.93;;;19.40;99.90;;;;;;5115562;28;20439;-85
2023/08/16 01:01:13;;;;;;;2.23;2.03;;;19.50;99.90;;;;;;5115803;28;20466;-85
2023/08/16 01:03:40;;;;;;;1.53;1.37;;;19.40;99.90;;;;;;5115610;28;20467;-85
2023/08/16 01:06:07;;;;;;;3.57;2.10;;;19.40;99.90;;;;;;5115922;28;20470;-85
2023/08/16 01:08:34;;;;;;;2.10;1.90;;;19.40;99.90;;;;;;5115664;28;20447;-85
2023/08/16 01:11:11;;;;;;;2.60;1.80;;;19.40;99.90;;;;;;5115950;28;20443;-86
2023/08/16 01:13:45;;;;;;;4.20;2.43;;;19.40;99.90;;;;;;5115576;28;20467;-85
2023/08/16 01:16:16;;;;;;;2.37;2.20;;;19.40;99.90;;;;;;5115536;28;20459;-85
2023/08/16 01:18:43;;;;;;;1.87;1.67;;;19.30;99.90;;;;;;5115568;28;20435;-85
2023/08/16 01:21:12;;;;;;;2.93;2.50;;;19.30;99.90;;;;;;5115487;28;20443;-85
2023/08/16 01:23:46;;;;;;;1.97;1.80;;;19.30;99.90;;;;;;5115373;28;20435;-85
2023/08/16 01:26:24;;;;;;;3.43;1.77;;;19.30;99.90;;;;;;5115578;28;20469;-85
2023/08/16 01:28:52;;;;;;;2.80;2.50;;;19.20;99.90;;;;;;5115301;28;20924;-85
2023/08/16 01:31:19;;;;;;;2.40;2.03;;;19.20;99.90;;;;;;5115254;28;20439;-85
2023/08/16 01:33:46;;;;;;;1.97;1.83;;;19.30;99.90;;;;;;5114852;28;20471;-85
2023/08/16 01:36:13;;;;;;;3.17;2.23;;;19.20;99.90;;;;;;5115158;28;20540;-85
2023/08/16 01:38:40;;;;;;;2.43;2.23;;;19.20;99.90;;;;;;5114806;28;20924;-85
2023/08/16 01:41:11;;;;;;;2.53;2.27;;;19.20;99.90;;;;;;5115042;28;20798;-85
2023/08/16 01:43:44;;;;;;;2.17;1.97;;;19.20;99.90;;;;;;5113996;27;20431;-85
2023/08/16 01:46:12;;;;;;;2.90;2.23;;;19.20;99.90;;;;;;5114856;28;20463;-85
2023/08/16 01:48:39;;;;;;;1.60;1.50;;;19.20;99.90;;;;;;5115053;28;20443;-85
2023/08/16 01:51:06;;;;;;;2.20;1.90;;;19.20;99.90;;;;;;5114540;28;20931;-85
2023/08/16 01:53:34;;;;;;;2.23;2.03;;;19.30;99.90;;;;;;5114777;28;20478;-85
2023/08/16 01:56:01;;;;;;;2.30;2.17;;;19.20;99.90;;;;;;5114392;28;21006;-85
2023/08/16 01:58:28;;;;;;;2.17;2.00;;;19.20;99.90;;;;;;5114348;28;20806;-85
2023/08/16 02:00:56;;;;;;;2.03;1.93;;;19.20;99.90;;;;;;5114343;28;20447;-85
2023/08/16 02:03:23;;;;;;;1.90;1.80;;;19.20;99.90;;;;;;5114417;28;20482;-85
2023/08/16 02:05:49;;;;;;;4.67;1.63;;;19.20;99.90;;;;;;5114513;28;20458;-85
2023/08/16 02:08:16;;;;;;;3.10;1.70;;;19.20;99.90;;;;;;5119263;28;20785;-84
2023/08/16 02:10:43;;;;;;;2.67;2.00;;;19.20;99.90;;;;;;5114141;27;20447;-85
2023/08/16 02:13:10;;;;;;;3.13;1.60;;;19.20;99.90;;;;;;5114383;28;20489;-84
2023/08/16 02:15:37;;;;;;;3.47;1.80;;;19.20;99.90;;;;;;5114020;28;20471;-85
2023/08/16 02:18:10;;;;;;;3.37;2.37;;;19.20;99.90;;;;;;5114284;28;20435;-84
2023/08/16 02:20:38;;;;;;;2.30;2.10;;;19.20;99.90;;;;;;5114027;28;20470;-85
2023/08/16 02:23:05;;;;;;;3.83;1.90;;;19.20;99.90;;;;;;5114323;28;20443;-85
2023/08/16 02:25:32;;;;;;;3.83;2.30;;;19.20;99.90;;;;;;5114133;28;20467;-84
2023/08/16 02:27:59;;;;;;;2.30;2.10;;;19.20;99.90;;;;;;5114192;27;20439;-85
2023/08/16 02:30:26;;;;;;;5.30;2.17;;;19.10;99.90;;;;;;5114120;27;20442;-84
2023/08/16 02:32:53;;;;;;;3.43;2.20;;;19.10;99.90;;;;;;5114024;28;20855;-85
2023/08/16 02:35:21;;;;;;;3.47;2.37;;;19.10;99.90;;;;;;5114027;28;20467;-85
2023/08/16 02:37:48;;;;;;;2.43;2.23;;;19.10;99.90;;;;;;5114098;28;20512;-84
2023/08/16 02:40:14;;;;;;;3.83;2.90;;;19.10;99.90;;;;;;5113979;28;20453;-84
2023/08/16 02:42:41;;;;;;;3.93;1.80;;;19.20;99.90;;;;;;5113932;28;20524;-85
2023/08/16 02:45:09;;;;;;;2.73;1.97;;;19.10;99.90;;;;;;5113477;28;20833;-85
2023/08/16 02:47:35;;;;;;;3.47;2.63;;;19.10;99.90;;;;;;5114451;28;20455;-84
2023/08/16 02:50:02;;;;;;;9.30;2.77;;;19.10;99.90;;;;;;5113538;28;20458;-84
2023/08/16 02:52:30;;;;;;;2.13;1.67;;;19.00;99.90;;;;;;5113541;28;20458;-84
2023/08/16 02:54:57;;;;;;;6.77;2.90;;;19.10;99.90;;;;;;5113666;28;20482;-84
2023/08/16 02:57:24;;;;;;;2.80;2.60;;;19.10;99.90;;;;;;5114099;28;20450;-84
2023/08/16 02:59:51;;;;;;;1.57;1.47;;;19.10;99.90;;;;;;5113813;28;20443;-84
2023/08/16 03:02:18;;;;;;;3.23;2.03;;;19.00;99.90;;;;;;5113206;28;20451;-84
2023/08/16 03:04:45;;;;;;;2.37;2.00;;;19.00;99.90;;;;;;5113727;28;20455;-84
2023/08/16 03:07:12;;;;;;;1.87;1.53;;;19.00;99.90;;;;;;5113711;28;20467;-84
2023/08/16 03:09:41;;;;;;;2.17;1.93;;;19.00;99.90;;;;;;5113686;28;20439;-85
2023/08/16 03:12:08;;;;;;;2.30;2.10;;;19.00;99.90;;;;;;5113682;28;20446;-84
2023/08/16 03:14:35;;;;;;;1.63;1.53;;;19.00;99.90;;;;;;5113515;28;20935;-85
2023/08/16 03:17:02;;;;;;;3.10;1.80;;;19.00;99.90;;;;;;5113887;28;20483;-84
2023/08/16 03:19:28;;;;;;;2.53;1.90;;;18.90;99.90;;;;;;5113635;28;20809;-84
2023/08/16 03:21:56;;;;;;;1.90;1.70;;;18.90;99.90;;;;;;5113608;28;20446;-85
2023/08/16 03:24:23;;;;;;;3.73;1.97;;;18.90;99.90;;;;;;5113252;28;20521;-85
2023/08/16 03:26:52;;;;;;;2.53;1.73;;;18.90;99.90;;;;;;5113257;28;20928;-84
2023/08/16 03:29:19;;;;;;;2.87;2.07;;;18.90;99.90;;;;;;5113208;28;20844;-84
2023/08/16 03:31:46;;;;;;;2.07;1.90;;;18.90;99.90;;;;;;5113462;28;20940;-84
2023/08/16 03:34:12;;;;;;;2.63;1.97;;;18.90;99.90;;;;;;5113101;28;21032;-84
2023/08/16 03:36:39;;;;;;;1.90;1.40;;;18.90;99.90;;;;;;5113234;28;20435;-84
2023/08/16 03:39:06;;;;;;;2.50;2.30;;;18.80;99.90;;;;;;5113451;28;20435;-84
2023/08/16 03:41:33;;;;;;;2.50;2.03;;;18.90;99.90;;;;;;5113644;28;20443;-84
2023/08/16 03:44:02;;;;;;;2.03;1.77;;;18.80;99.90;;;;;;5113102;28;20866;-84
2023/08/16 03:46:29;;;;;;;1.83;1.43;;;18.80;99.90;;;;;;5113390;28;20443;-85
2023/08/16 03:48:55;;;;;;;1.93;1.53;;;18.80;99.90;;;;;;5113320;28;20440;-84
2023/08/16 03:51:22;;;;;;;1.60;1.50;;;18.80;99.90;;;;;;5113266;28;20462;-84
2023/08/16 03:53:49;;;;;;;2.70;1.90;;;18.80;99.90;;;;;;5112913;28;21021;-84
2023/08/16 03:56:16;;;;;;;2.80;1.90;;;18.70;99.90;;;;;;5113479;28;20443;-84
2023/08/16 03:58:42;;;;;;;3.50;1.97;;;18.70;99.90;;;;;;5113218;28;20442;-84
2023/08/16 04:01:11;;;;;;;1.93;1.53;;;18.70;99.90;;;;;;5113281;28;20447;-85
2023/08/16 04:03:38;;;;;;;1.60;1.50;;;18.70;99.90;;;;;;5112836;28;21026;-84
2023/08/16 04:06:10;;;;;;;2.23;1.73;;;18.70;99.90;;;;;;5114524;28;20975;-84
2023/08/16 04:08:37;;;;;;;1.73;1.47;;;18.70;99.90;;;;;;5117235;28;20430;-84
2023/08/16 04:11:04;;;;;;;2.40;1.43;;;18.70;99.90;;;;;;5116560;28;20427;-84
2023/08/16 04:13:30;;;;;;;2.93;2.13;;;18.60;99.90;;;;;;5116421;28;20478;-84
2023/08/16 04:15:57;;;;;;;1.97;1.57;;;18.60;99.90;;;;;;5116628;28;20826;-84
2023/08/16 04:18:26;;;;;;;2.00;1.80;;;18.60;99.90;;;;;;5116456;28;20967;-84
2023/08/16 04:20:52;;;;;;;4.40;1.93;;;18.60;99.90;;;;;;5116604;28;20707;-84
2023/08/16 04:23:19;;;;;;;1.80;1.63;;;18.60;99.90;;;;;;5116574;28;20796;-84
2023/08/16 04:25:46;;;;;;;1.87;1.73;;;18.50;99.90;;;;;;5116420;28;20470;-84
2023/08/16 04:28:13;;;;;;;1.70;1.60;;;18.50;99.90;;;;;;5116502;28;20439;-84
2023/08/16 04:30:39;;;;;;;3.67;1.97;;;18.50;99.90;;;;;;5116439;28;20446;-85
2023/08/16 04:33:06;;;;;;;3.43;2.03;;;18.50;99.90;;;;;;5116195;28;20504;-84
2023/08/16 04:35:34;;;;;;;3.17;1.43;;;18.50;99.90;;;;;;5116133;28;20478;-84
2023/08/16 04:38:01;;;;;;;3.37;2.43;;;18.50;99.90;;;;;;5116087;28;20481;-83
2023/08/16 04:40:28;;;;;;;2.03;1.87;;;18.60;99.90;;;;;;5116297;27;20439;-84
2023/08/16 04:42:54;;;;;;;3.43;3.13;;;18.60;99.90;;;;;;5116211;28;20443;-84
2023/08/16 04:45:21;;;;;;;4.30;2.37;;;18.60;99.90;;;;;;5116028;28;20455;-84
2023/08/16 04:47:48;;;;;;;1.67;1.57;;;18.60;99.90;;;;;;5116077;28;20443;-84
2023/08/16 04:50:15;;;;;;;2.33;1.83;;;18.60;99.90;;;;;;5115701;27;20932;-85
2023/08/16 04:52:43;;;;;;;2.70;2.50;;;18.60;99.90;;;;;;5116002;28;20485;-84
2023/08/16 04:55:10;;;;;;;2.20;1.87;;;18.70;99.90;;;;;;5115835;28;20489;-84
2023/08/16 04:57:37;;;;;;;5.43;2.50;;;18.70;99.90;;;;;;5115792;28;20454;-83
2023/08/16 05:00:06;;;;;;;2.07;1.90;;;18.80;99.90;;;;;;5115849;28;20454;-84
2023/08/16 05:02:33;;;;;;;2.00;1.80;;;18.80;99.90;;;;;;5115598;28;20895;-84
2023/08/16 05:05:00;;;;;;;5.37;2.70;;;18.80;99.90;;;;;;5115755;28;20459;-84
2023/08/16 05:07:27;;;;;;;2.33;2.13;;;18.90;99.90;;;;;;5115772;28;20441;-83
2023/08/16 05:09:55;;;;;;;2.70;1.63;;;18.90;99.90;;;;;;5115361;27;20446;-83
2023/08/16 05:12:21;;;;;;;2.70;2.10;;;18.90;99.90;;;;;;5115640;28;20450;-84
2023/08/16 05:14:48;;;;;;;3.33;1.70;;;18.90;99.90;;;;;;5115434;27;20491;-83
2023/08/16 05:17:15;;;;;;;2.80;1.60;;;19.00;99.90;;;;;;5114390;28;20435;-83
2023/08/16 05:19:42;;;;;;;2.40;1.93;;;19.10;99.90;;;;;;5115529;28;20822;-84
2023/08/16 05:22:08;;;;;;;2.43;1.90;;;19.10;99.90;;;;;;5115549;28;20431;-83
2023/08/16 05:24:35;;;;;;;1.63;1.53;;;19.10;99.90;;;;;;5115005;28;20979;-84
2023/08/16 05:27:03;;;;;;;2.03;1.70;;;19.00;99.90;;;;;;5115362;28;20463;-83
2023/08/16 05:29:30;;;;;;;2.30;2.10;;;19.00;99.90;;;;;;5114971;28;20443;-83
2023/08/16 05:31:58;;;;;;;3.57;1.83;;;19.00;99.90;;;;;;5115436;28;20449;-83
2023/08/16 05:34:25;;;;;;;3.20;1.93;;;19.10;99.90;;;;;;5115026;28;20565;-83
2023/08/16 05:36:53;;;;;;;1.50;1.40;;;19.20;99.90;;;;;;5114891;28;20450;-82
2023/08/16 05:39:20;;;;;;;2.50;1.97;;;19.30;99.90;;;;;;5115100;28;20447;-83
2023/08/16 05:41:47;;;;;;;2.57;2.20;;;19.40;99.90;;;;;;5115052;28;20427;-83
2023/08/16 05:44:15;;;;;;;2.87;1.90;;;19.50;99.90;;;;;;5114892;28;20455;-82
2023/08/16 05:46:42;;;;;;;1.93;1.77;;;19.60;99.90;;;;;;5114982;28;20431;-83
2023/08/16 05:49:09;;;;;;;3.13;1.67;;;19.70;99.90;;;;;;5115671;28;20539;-83
2023/08/16 05:51:36;;;;;;;2.90;2.57;;;19.80;99.90;;;;;;5114794;28;20444;-83
2023/08/16 05:54:03;;;;;;;2.50;1.87;;;19.90;99.90;;;;;;5114668;28;20833;-83
2023/08/16 05:56:30;;;;;;;2.90;1.50;;;20.10;99.90;;;;;;5114759;28;20553;-83
2023/08/16 05:58:57;;;;;;;2.03;1.83;;;20.10;99.90;;;;;;5114662;28;20513;-83
2023/08/16 06:01:25;;;;;;;1.40;1.30;;;20.20;99.90;;;;;;5114607;28;20967;-83
2023/08/16 06:03:52;;;;;;;1.70;1.60;;;20.30;99.90;;;;;;5114241;27;20481;-83
2023/08/16 06:06:18;;;;;;;2.33;2.13;;;20.40;99.90;;;;;;5114491;28;20446;-83
2023/08/16 06:08:45;;;;;;;1.47;1.37;;;20.50;99.90;;;;;;5114524;28;20469;-84
2023/08/16 06:11:12;;;;;;;3.50;2.10;;;20.70;99.90;;;;;;5114356;28;20449;-83
2023/08/16 06:13:39;;;;;;;3.90;2.20;;;20.70;99.90;;;;;;5114676;28;20438;-83
2023/08/16 06:16:05;;;;;;;1.53;1.43;;;20.80;99.90;;;;;;5114250;28;20485;-83
2023/08/16 06:18:33;;;;;;;1.73;1.63;;;20.90;99.90;;;;;;5114064;27;20442;-84
2023/08/16 06:21:00;;;;;;;2.63;1.50;;;20.90;99.90;;;;;;5114361;28;20440;-83
2023/08/16 06:23:27;;;;;;;2.33;1.67;;;20.90;99.90;;;;;;5114287;28;20462;-83
2023/08/16 06:25:53;;;;;;;3.73;1.67;;;21.00;99.90;;;;;;5113880;28;20458;-84
2023/08/16 06:28:20;;;;;;;2.23;2.10;;;21.00;99.90;;;;;;5114097;28;20446;-83
2023/08/16 06:30:47;;;;;;;2.10;1.70;;;21.20;99.90;;;;;;5114437;28;20446;-84
2023/08/16 06:33:14;;;;;;;2.30;2.10;;;21.40;99.90;;;;;;5113814;28;20438;-84
2023/08/16 06:35:42;;;;;;;2.33;1.77;;;21.50;99.90;;;;;;5113892;28;20492;-83
2023/08/16 06:38:09;;;;;;;2.10;2.00;;;21.50;99.90;;;;;;5114065;28;20788;-84
2023/08/16 06:40:36;;;;;;;1.60;1.50;;;21.50;99.90;;;;;;5114035;28;20434;-83
2023/08/16 06:43:03;;;;;;;2.20;1.47;;;21.70;99.90;;;;;;5114001;28;20434;-83
2023/08/16 06:45:29;;;;;;;2.57;1.90;;;21.80;99.90;;;;;;5113571;28;20461;-83
2023/08/16 06:47:59;;;;;;;1.97;1.67;;;21.80;99.90;;;;;;5113945;28;20450;-83
2023/08/16 06:50:26;;;;;;;2.53;2.00;;;21.90;99.90;;;;;;5114067;28;20423;-85
2023/08/16 06:52:54;;;;;;;2.27;1.60;;;22.10;99.90;;;;;;5113912;28;20926;-85
2023/08/16 06:55:22;;;;;;;1.77;1.67;;;22.30;99.90;;;;;;5113733;28;20485;-85
2023/08/16 06:57:48;;;;;;;3.00;2.07;;;22.50;99.90;;;;;;5113529;28;20438;-85
2023/08/16 07:00:17;;;;;;;2.53;2.10;;;22.60;99.90;;;;;;5113829;28;20438;-85
2023/08/16 07:02:44;;;;;;;1.83;1.60;;;22.70;99.90;;;;;;5113617;28;20528;-85
2023/08/16 07:05:12;;;;;;;3.00;2.10;;;22.80;99.90;;;;;;5113677;28;20459;-85
2023/08/16 07:07:39;;;;;;;1.87;1.77;;;22.90;99.90;;;;;;5113751;28;20529;-85
2023/08/16 07:10:08;;;;;;;2.27;2.17;;;23.10;99.90;;;;;;5113380;28;20443;-85
2023/08/16 07:12:36;;;;;;;2.10;1.80;;;23.30;99.90;;;;;;5114001;28;20442;-85
2023/08/16 07:15:02;;;;;;;3.90;2.20;;;23.40;99.90;;;;;;5113645;28;20482;-86
2023/08/16 07:17:29;;;;;;;1.80;1.33;;;23.60;99.90;;;;;;5113723;28;20200;-85
2023/08/16 07:19:56;;;;;;;2.03;1.80;;;23.60;99.90;;;;;;5113269;28;20563;-85
2023/08/16 07:22:24;;;;;;;3.83;2.10;;;23.60;99.90;;;;;;5113405;28;20642;-86
2023/08/16 07:24:51;;;;;;;3.27;1.77;;;23.60;99.90;;;;;;5113185;28;20221;-84
2023/08/16 07:27:19;;;;;;;2.80;1.83;;;23.60;99.90;;;;;;5113171;28;20553;-84
2023/08/16 07:29:45;;;;;;;2.05;1.95;;;23.70;99.90;;;;;;5113762;28;20201;-85
2023/08/16 07:32:12;;;;;;;3.03;1.48;;;23.70;99.90;;;;;;5113412;28;20201;-85
2023/08/16 07:34:39;;;;;;;2.20;1.70;;;23.80;99.90;;;;;;5113329;28;20228;-85
2023/08/16 07:37:06;;;;;;;2.58;1.90;;;23.90;99.90;;;;;;5113206;28;20673;-86
2023/08/16 07:39:33;;;;;;;3.10;1.88;;;24.00;99.90;;;;;;5113460;28;20205;-85
2023/08/16 07:41:59;;;;;;;1.88;1.77;;;24.10;99.90;;;;;;5117010;28;20204;-86
2023/08/16 07:44:27;;;;;;;2.22;1.70;;;24.10;99.90;;;;;;5116531;28;20220;-84
2023/08/16 07:46:54;;;;;;;2.13;1.92;;;24.30;99.90;;;;;;5116230;28;20756;-84
2023/08/16 07:49:21;;;;;;;2.30;2.05;;;24.30;99.90;;;;;;5118551;28;20578;-87
2023/08/16 07:51:48;;;;;;;1.98;1.80;;;24.40;99.90;;;;;;5117223;28;20204;-85
2023/08/16 07:54:15;;;;;;;2.45;1.73;;;24.50;99.90;;;;;;5116948;28;20220;-85
2023/08/16 07:56:42;;;;;;;2.20;2.10;;;24.60;99.90;;;;;;5116964;28;20575;-85
2023/08/16 07:59:08;;;;;;;1.77;1.67;;;24.70;99.90;;;;;;5116231;28;20220;-84
2023/08/16 08:01:36;;;;;;;2.72;2.35;;;24.90;99.90;;;;;;5116042;28;20694;-84
2023/08/16 08:04:04;;;;;;;2.28;2.17;;;25.00;99.90;;;;;;5116494;28;20241;-85
2023/08/16 08:06:31;;;;;;;2.55;2.35;;;25.10;99.90;;;;;;5116917;28;20201;-85
2023/08/16 08:08:58;;;;;;;2.90;1.98;;;25.20;99.90;;;;;;5116912;28;20208;-85
2023/08/16 08:11:25;;;;;;;2.35;2.15;;;25.20;99.90;;;;;;5116752;28;20204;-85
2023/08/16 08:13:51;;;;;;;2.10;1.90;;;25.30;99.90;;;;;;5116724;28;20207;-84
2023/08/16 08:16:18;;;;;;;2.17;2.08;;;25.40;99.90;;;;;;5116381;28;20701;-84
2023/08/16 08:18:46;;;;;;;2.25;2.05;;;25.50;99.90;;;;;;5116949;28;20635;-84
2023/08/16 08:21:13;;;;;;;2.83;2.63;;;25.60;99.90;;;;;;5116674;28;20200;-85
2023/08/16 08:23:40;;;;;;;3.80;2.58;;;25.70;99.90;;;;;;5116630;28;20201;-85
2023/08/16 08:26:07;;;;;;;5.65;2.70;;;25.90;99.90;;;;;;5116442;28;20220;-84
2023/08/16 08:28:34;;;;;;;1.80;1.70;;;25.90;99.90;;;;;;5116527;27;20204;-85
2023/08/16 08:31:03;;;;;;;2.28;2.08;;;26.00;99.90;;;;;;5116130;28;20236;-84
2023/08/16 08:33:30;;;;;;;2.97;1.95;;;26.10;99.90;;;;;;5116117;28;20677;-84
2023/08/16 08:35:59;;;;;;;2.20;2.00;;;26.10;99.90;;;;;;5115880;28;20689;-84
2023/08/16 08:38:26;;;;;;;1.80;1.70;;;26.30;99.90;;;;;;5115995;28;20205;-84
2023/08/16 08:40:57;;;;;;;2.35;2.08;;;26.50;99.90;;;;;;5116356;27;20207;-85
2023/08/16 08:43:28;;;;;;;3.17;2.97;;;26.70;99.90;;;;;;5116267;27;20189;-84
2023/08/16 08:45:57;;;;;;;1.90;1.70;;;26.80;99.90;;;;;;5116069;28;20219;-84
2023/08/16 08:48:24;;;;;;;3.25;2.38;;;26.70;99.90;;;;;;5115877;28;20192;-84
2023/08/16 08:50:52;;;;;;;1.95;1.80;;;26.60;99.90;;;;;;5115919;27;20204;-85
2023/08/16 08:53:20;;;;;;;2.33;2.20;;;26.60;99.90;;;;;;5115659;28;20208;-84
2023/08/16 08:55:48;;;;;;;1.98;1.88;;;26.60;99.90;;;;;;5115821;28;20229;-84
2023/08/16 08:58:17;;;;;;;1.75;1.65;;;26.60;99.90;;;;;;5115580;28;20204;-84
2023/08/16 09:00:45;;;;;;;1.80;1.70;;;26.60;99.90;;;;;;5115547;28;20718;-84
2023/08/16 09:03:12;;;;;;;4.57;2.22;;;26.60;99.90;;;;;;5115553;28;20319;-84
2023/08/16 09:05:41;;;;;;;3.13;2.47;;;26.70;99.90;;;;;;5115972;28;20221;-85
2023/08/16 09:08:09;;;;;;;3.03;1.95;;;26.90;99.90;;;;;;5115742;28;20188;-84
2023/08/16 09:10:38;;;;;;;2.00;1.90;;;27.00;99.90;;;;;;5115784;28;20246;-84
2023/08/16 09:13:06;;;;;;;2.22;2.05;;;27.20;99.90;;;;;;5115274;28;20668;-85
2023/08/16 09:15:33;;;;;;;3.13;2.75;;;27.30;99.90;;;;;;5115186;28;20722;-84
2023/08/16 09:18:07;;;;;;;2.33;1.98;;;27.40;99.90;;;;;;5115547;28;20200;-85
2023/08/16 09:20:34;;;;;;;1.95;1.85;;;27.30;99.90;;;;;;5115522;28;20233;-85
2023/08/16 09:23:01;;;;;;;1.90;1.80;;;27.40;99.90;;;;;;5115458;28;20211;-85
2023/08/16 09:25:29;;;;;;;2.05;1.83;;;27.60;99.90;;;;;;5115286;28;20579;-84
2023/08/16 09:27:58;;;;;;;2.67;1.90;;;27.50;99.90;;;;;;5115408;28;20211;-85
2023/08/16 09:30:26;;;;;;;2.05;1.77;;;27.60;99.90;;;;;;5115335;28;20196;-85
2023/08/16 09:32:55;;;;;;;2.15;1.80;;;27.80;99.90;;;;;;5114920;27;20685;-85
2023/08/16 09:35:27;;;;;;;2.85;2.65;;;27.90;99.90;;;;;;5115074;28;20574;-85
2023/08/16 09:37:56;;;;;;;1.60;1.50;;;27.90;99.90;;;;;;5122600;28;20185;-85
2023/08/16 09:40:23;;;;;;;2.35;2.25;;;28.00;99.90;;;;;;5129278;28;20202;-85
2023/08/16 09:42:49;;;;;;;2.17;2.08;;;28.20;99.90;;;;;;5123869;28;20657;-86
2023/08/16 09:45:27;;;;;;;2.03;1.92;;;28.30;99.90;;;;;;5115990;28;20225;-84
2023/08/16 09:47:54;;;;;;;3.13;1.70;;;28.40;99.90;;;;;;5116479;28;20185;-85
2023/08/16 09:50:22;;;;;;;2.97;2.75;;;28.30;99.90;;;;;;5123326;28;20206;-85
2023/08/16 09:52:49;;;;;;;2.30;2.10;;;28.30;99.90;;;;;;5115363;27;20204;-85
2023/08/16 09:55:26;;;;;;;2.00;1.90;;;28.40;99.90;;;;;;5115224;28;20237;-86
2023/08/16 09:57:53;;;;;;;3.65;2.22;;;28.50;99.90;;;;;;5114897;28;20181;-84
2023/08/16 10:00:23;;;;;;;2.53;2.33;;;28.60;99.90;;;;;;5114852;28;20205;-84
2023/08/16 10:02:51;;;;;;;2.42;2.22;;;28.60;99.90;;;;;;5113961;28;20234;-84
2023/08/16 10:05:18;;;;;;;1.77;1.67;;;28.60;99.90;;;;;;5115021;28;20213;-85
2023/08/16 10:07:47;;;;;;;2.28;2.13;;;28.70;99.90;;;;;;5114361;28;20205;-86
2023/08/16 10:10:14;;;;;;;2.47;2.28;;;28.50;99.90;;;;;;5114707;28;20547;-85
2023/08/16 10:12:41;;;;;;;2.47;2.38;;;28.60;99.90;;;;;;5114604;28;20213;-84
2023/08/16 10:15:09;;;;;;;2.15;2.03;;;28.60;99.90;;;;;;5114183;28;20229;-85
2023/08/16 10:17:39;;;;;;;2.75;2.53;;;28.70;99.90;;;;;;5114451;28;20211;-86
2023/08/16 10:20:12;;;;;;;2.38;2.17;;;28.80;99.90;;;;;;5114193;28;20244;-84
2023/08/16 10:22:41;;;;;;;2.85;2.35;;;28.90;99.90;;;;;;5114324;28;20714;-86
2023/08/16 10:25:12;;;;;;;2.75;2.55;;;29.00;99.90;;;;;;5113981;28;20711;-84
2023/08/16 10:27:42;;;;;;;1.85;1.75;;;29.00;99.90;;;;;;5114223;28;20192;-85
2023/08/16 10:30:13;;;;;;;2.45;2.25;;;29.10;99.90;;;;;;5114182;28;20215;-85
2023/08/16 10:32:43;;;;;;;2.63;2.38;;;28.90;99.90;;;;;;5114550;28;20250;-84
2023/08/16 10:35:12;;;;;;;2.50;2.30;;;28.90;99.90;;;;;;5113789;28;20233;-86
2023/08/16 10:37:39;;;;;;;1.60;1.50;;;28.90;99.90;;;;;;5114306;28;20250;-85
2023/08/16 10:40:17;;;;;;;2.40;2.20;;;28.90;99.90;;;;;;5114388;28;20210;-85
2023/08/16 10:42:53;;;;;;;3.35;3.15;;;29.00;99.90;;;;;;5114068;28;20187;-85
2023/08/16 10:45:24;;;;;;;2.67;2.45;;;29.00;99.90;;;;;;5114020;28;20223;-85
2023/08/16 10:47:52;;;;;;;2.45;2.28;;;29.10;99.90;;;;;;5113852;28;20594;-85
2023/08/16 10:50:19;;;;;;;2.92;2.60;;;29.00;99.90;;;;;;5113922;28;20209;-85
2023/08/16 10:52:46;;;;;;;2.95;2.78;;;29.10;99.90;;;;;;5113925;28;20203;-85
2023/08/16 10:55:13;;;;;;;2.40;2.30;;;29.20;99.90;;;;;;5113729;28;20242;-84
2023/08/16 10:57:50;;;;;;;2.35;2.25;;;29.30;99.90;;;;;;5113876;28;20211;-86
2023/08/16 11:00:18;;;;;;;2.30;2.20;;;29.60;99.90;;;;;;5113606;28;20737;-86
2023/08/16 11:02:48;;;;;;;2.58;2.05;;;29.90;99.90;;;;;;5113545;28;20611;-84
2023/08/16 11:05:19;;;;;;;2.13;2.03;;;30.10;99.90;;;;;;5113708;28;20227;-85
2023/08/16 11:07:46;;;;;;;2.40;2.00;;;30.10;99.90;;;;;;5113547;28;20644;-85
2023/08/16 11:10:12;;;;;;;3.50;2.30;;;30.00;99.90;;;;;;5113393;28;20674;-86
2023/08/16 11:12:39;;;;;;;2.78;2.58;;;30.00;99.90;;;;;;5113393;28;20212;-85
2023/08/16 11:15:08;;;;;;;2.00;1.90;;;29.90;99.90;;;;;;5114016;28;20216;-86
2023/08/16 11:17:35;;;;;;;2.75;2.55;;;29.80;99.90;;;;;;5117955;28;20211;-86
2023/08/16 11:20:04;;;;;;;2.90;2.70;;;29.60;99.90;;;;;;5117859;28;20202;-85
2023/08/16 11:22:32;;;;;;;3.95;3.30;;;29.60;99.90;;;;;;5117928;28;20208;-84
2023/08/16 11:25:00;;;;;;;3.03;2.83;;;29.50;99.90;;;;;;5117704;28;20232;-85
2023/08/16 11:27:28;;;;;;;2.53;2.33;;;29.50;99.90;;;;;;5117392;28;20209;-85
2023/08/16 11:29:56;;;;;;;2.60;2.40;;;29.40;99.90;;;;;;5117660;28;20250;-86
2023/08/16 11:32:33;;;;;;;2.50;2.30;;;29.50;99.90;;;;;;5117683;28;20204;-84
2023/08/16 11:35:00;;;;;;;3.08;2.10;;;29.60;99.90;;;;;;5117493;28;20274;-85
2023/08/16 11:37:27;;;;;;;2.33;2.22;;;29.60;99.90;;;;;;5117140;28;20224;-85
2023/08/16 11:40:01;;;;;;;2.15;2.05;;;29.50;99.90;;;;;;5117520;28;20213;-85
2023/08/16 11:42:29;;;;;;;3.15;2.65;;;29.50;99.90;;;;;;5117136;27;20686;-84
2023/08/16 11:44:56;;;;;;;2.28;2.08;;;29.60;99.90;;;;;;5117634;28;20276;-86
2023/08/16 11:47:23;;;;;;;2.10;1.92;;;29.70;99.90;;;;;;5117337;28;20197;-84
2023/08/16 11:49:50;;;;;;;2.50;1.98;;;29.60;99.90;;;;;;5117294;28;20213;-85
2023/08/16 11:52:21;;;;;;;2.30;2.10;;;29.60;99.90;;;;;;5117077;28;20552;-85
2023/08/16 11:54:48;;;;;;;2.63;2.47;;;29.40;99.90;;;;;;5117020;28;20648;-86
2023/08/16 11:57:19;;;;;;;3.22;2.63;;;29.30;99.90;;;;;;5117120;28;20226;-86
2023/08/16 11:59:55;;;;;;;2.28;2.08;;;29.10;99.90;;;;;;5116826;28;20213;-86
2023/08/16 12:02:22;;;;;;;2.28;2.08;;;29.00;99.90;;;;;;5116836;28;20273;-85
2023/08/16 12:04:49;;;;;;;2.15;2.00;;;29.00;99.90;;;;;;5116807;27;20713;-86
2023/08/16 12:07:15;;;;;;;1.50;1.50;;;29.10;99.90;;;;;;5116994;28;20203;-85
2023/08/16 12:09:42;;;;;;;1.83;1.73;;;29.00;99.90;;;;;;5116916;28;20202;-86
2023/08/16 12:12:10;;;;;;;1.92;1.83;;;29.00;99.90;;;;;;5116637;28;20211;-87
2023/08/16 12:14:38;;;;;;;2.45;2.25;;;29.10;99.90;;;;;;5116823;27;20221;-86
2023/08/16 12:17:04;;;;;;;2.10;2.00;;;29.10;99.90;;;;;;5116861;28;20224;-85
2023/08/16 12:19:31;;;;;;;2.72;2.58;;;29.10;99.90;;;;;;5116405;28;20565;-85
2023/08/16 12:21:58;;;;;;;2.00;1.80;;;29.20;99.90;;;;;;5116649;28;20214;-85
2023/08/16 12:24:25;;;;;;;1.98;1.88;;;29.40;99.90;;;;;;5116358;28;20221;-85
2023/08/16 12:26:51;;;;;;;3.40;1.85;;;29.40;99.90;;;;;;5116162;28;20205;-86
2023/08/16 12:29:18;;;;;;;2.10;2.00;;;29.40;99.90;;;;;;5116545;28;20206;-85
2023/08/16 12:31:46;;;;;;;3.35;2.20;;;29.50;99.90;;;;;;5116543;28;20564;-85
2023/08/16 12:34:13;;;;;;;2.13;1.70;;;29.40;99.90;;;;;;5116392;28;20227;-86
2023/08/16 12:36:39;;;;;;;1.63;1.52;;;29.50;99.90;;;;;;5116660;28;20748;-86
2023/08/16 12:39:06;;;;;;;2.30;2.20;;;29.30;99.90;;;;;;5116554;28;20204;-85
2023/08/16 12:41:33;;;;;;;1.67;1.58;;;29.30;99.90;;;;;;5116328;28;20254;-86
2023/08/16 12:44:00;;;;;;;2.28;2.17;;;29.30;99.90;;;;;;5116227;28;20204;-86
2023/08/16 12:46:27;;;;;;;2.30;2.20;;;29.20;99.90;;;;;;5116215;28;20199;-85
2023/08/16 12:48:55;;;;;;;3.13;1.75;;;29.10;99.90;;;;;;5116177;28;20198;-87
2023/08/16 12:51:22;;;;;;;2.28;2.08;;;29.10;99.90;;;;;;5115958;28;20201;-86